CheckWX is a tool to help pilots better visualize weather data.  It is not intended as a substitute for an official pre-flight weather briefing.

12:50:37 UTC

EGGP METAR
Liverpool John Lennon Airport
Liverpool, United Kingdom
Current

31 mins ago

EGGP 171220Z 18010KT 9999 FEW025 SCT037 17/12 Q1014
Observed
Jun-17 @ 12:20 UTC
Wind
  • 180° at 10 KTS
Visibility
10,000+ meters
Flight Rules
VFR
Cloud Levels
  • Few at 2,500' AGL
  • Scattered at 3,700' AGL
Temperature
17°C / 63°F
Dewpoint
12°C / 54°F
Humidity
73%
Altimeter
29.94" Hg
Pressure
1013.92 hPa
Previous

1 hour ago

EGGP 171150Z 21014KT 9999 FEW028 SCT045 16/09 Q1014
Observed
Jun-17 @ 11:50 UTC
Wind
  • 210° at 14 KTS
Visibility
10,000+ meters
Flight Rules
VFR
Cloud Levels
  • Few at 2,800' AGL
  • Scattered at 4,500' AGL
Temperature
16°C / 61°F
Dewpoint
C / 48°F
Humidity
63%
Altimeter
29.94" Hg
Pressure
1013.92 hPa
Previous

2 hours ago

EGGP 171120Z 18011KT 9999 FEW020 SCT028 16/12 Q1014
Observed
Jun-17 @ 11:20 UTC
Wind
  • 180° at 11 KTS
Visibility
10,000+ meters
Flight Rules
VFR
Cloud Levels
  • Few at 2,000' AGL
  • Scattered at 2,800' AGL
Temperature
16°C / 61°F
Dewpoint
12°C / 54°F
Humidity
77%
Altimeter
29.94" Hg
Pressure
1013.92 hPa